Latest Weather Observations for Bega

IDN60801

Issued at 9:32 am EDT Tuesday 22 January 2019 (issued every 10 minutes, with the page automatically refreshed every 10 minutes)

About weather observations | Map of weather stations | Latest weather observations for NSW | Other Formats
Station Details ID: 069139 Name: BEGA AWS Lat: -36.67 Lon: 149.82 Height: 41.0 m
Data from the previous 72 hours. | See also: Recent months at Bega
Date/Time
EDT
Temp
°C
App
Temp
°C
Dew
Point
°C
Rel
Hum
%
Delta-T
°C
Wind Press
QNH
hPa
Press
MSL
hPa
Rain since
9am
mm
Dir  Spd
km/h
Gust
km/h
Spd
kts
Gust
kts
22/09:30am 25.8 29.4 22.3 81 2.4 SSE 7 9 4 5 1012.7 1012.6 0.0
22/09:00am 22.5 26.9 21.3 93 0.8 CALM 0 0 0 0 1013.0 1012.9 0.0
22/08:30am 21.8 26.4 21.8 100 0.0 CALM 0 0 0 0 1013.3 1013.2 0.0
22/08:00am 20.6 24.6 20.6 100 0.0 CALM 0 0 0 0 1013.3 1013.2 0.0
22/07:30am 20.1 23.9 20.1 100 0.0 CALM 0 0 0 0 1013.3 1013.2 0.0
22/07:00am 19.5 23.0 19.5 100 0.0 CALM 0 0 0 0 1013.2 1013.1 0.0
22/06:30am 18.8 21.9 18.6 99 0.1 CALM 0 0 0 0 1013.1 1013.0 0.0
22/06:00am 19.1 22.4 19.1 100 0.0 CALM 0 0 0 0 1012.9 1012.8 0.0
22/05:30am 19.4 22.7 19.2 99 0.1 CALM 0 0 0 0 1012.9 1012.8 0.0
22/05:00am 19.6 23.0 19.4 99 0.1 CALM 0 0 0 0 1012.8 1012.7 0.0
22/04:30am 20.3 24.2 20.3 100 0.0 CALM 0 0 0 0 1012.9 1012.8 0.0
22/04:00am 20.1 23.8 19.9 99 0.1 CALM 0 0 0 0 1013.1 1013.0 0.0
22/03:30am 20.8 24.8 20.6 99 0.1 CALM 0 0 0 0 1013.3 1013.2 0.0
22/03:00am 20.8 24.7 20.3 97 0.3 CALM 0 0 0 0 1013.6 1013.5 0.0
22/02:30am 21.1 25.1 20.6 97 0.3 CALM 0 0 0 0 1013.8 1013.7 0.0
22/02:00am 21.5 25.5 20.5 94 0.6 CALM 0 0 0 0 1014.2 1014.1 0.0
22/01:30am 21.8 25.9 20.8 94 0.7 CALM 0 0 0 0 1014.6 1014.5 0.0
22/01:00am 21.8 25.9 20.8 94 0.6 CALM 0 0 0 0 1014.9 1014.8 0.0
22/12:30am 22.3 26.5 20.9 92 0.9 CALM 0 0 0 0 1015.3 1015.2 0.0
22/12:00am 22.3 26.4 20.8 91 1.0 CALM 0 0 0 0 1015.4 1015.3 0.0
 
Date/Time
EDT
Temp
°C
App
Temp
°C
Dew
Point
°C
Rel
Hum
%
Delta-T
°C
Wind Press
QNH
hPa
Press
MSL
hPa
Rain since
9am
mm
Dir  Spd
km/h
Gust
km/h
Spd
kts
Gust
kts
21/11:30pm 22.6 25.6 20.9 90 1.1 SW 6 9 3 5 1015.5 1015.4 0.0
21/11:00pm 23.0 27.1 20.7 87 1.5 CALM 0 0 0 0 1015.7 1015.5 0.0
21/10:30pm 23.1 26.1 20.8 87 1.5 ENE 6 7 3 4 1015.8 1015.6 0.0
21/10:00pm 23.0 25.7 20.7 87 1.5 ENE 7 9 4 5 1015.5 1015.4 0.0
21/09:30pm 23.4 26.2 20.9 86 1.6 NE 7 13 4 7 1015.3 1015.2 0.0
21/09:00pm 23.7 25.7 20.8 84 1.9 NE 11 17 6 9 1015.0 1014.9 0.0
21/08:30pm 24.4 26.1 20.9 81 2.3 NE 13 15 7 8 1014.7 1014.6 0.0
21/08:00pm 25.1 26.8 21.0 78 2.7 NE 13 15 7 8 1014.4 1014.3 0.0
21/07:30pm 25.9 27.3 21.1 75 3.2 NE 15 20 8 11 1014.1 1014.0 0.0
21/07:00pm 26.5 27.1 21.0 72 3.6 ENE 19 26 10 14 1013.7 1013.6 0.0
21/06:30pm 27.6 28.4 21.4 69 4.1 ENE 19 26 10 14 1013.5 1013.4 0.0
21/06:00pm 28.2 28.9 21.2 65 4.7 ENE 19 22 10 12 1013.4 1013.3 0.0
21/05:30pm 28.3 29.1 21.3 65 4.7 ENE 19 24 10 13 1013.5 1013.4 0.0
21/05:00pm 29.5 31.4 22.0 64 5.1 ENE 15 20 8 11 1013.4 1013.3 0.0
21/04:30pm 29.1 29.4 20.5 59 5.7 NE 19 24 10 13 1013.6 1013.5 0.0
21/04:00pm 28.8 29.5 20.5 61 5.5 NE 17 24 9 13 1013.9 1013.8 0.0
21/03:30pm 28.9 29.4 20.9 62 5.3 NE 19 26 10 14 1014.2 1014.1 0.0
21/03:00pm 27.7 27.5 20.5 65 4.7 NE 22 30 12 16 1014.4 1014.3 0.0
21/02:30pm 28.8 28.9 21.8 66 4.7 NE 24 30 13 16 1014.7 1014.6 0.0
21/02:00pm 27.5 26.8 21.1 68 4.2 NE 26 35 14 19 1015.2 1015.1 0.0
21/01:30pm 27.8 27.2 20.6 65 4.8 NE 24 33 13 18 1015.5 1015.4 0.0
21/01:00pm 28.0 27.4 20.6 64 4.9 NE 24 32 13 17 1016.0 1015.8 0.0
21/12:30pm 28.4 30.1 20.2 61 5.4 ESE 11 20 6 11 1016.3 1016.1 0.0
21/12:00pm 28.4 30.2 21.2 65 4.8 SE 13 17 7 9 1016.5 1016.3 0.0
21/11:30am 27.3 28.6 19.4 62 5.1 NE 11 17 6 9 1016.7 1016.5 0.0
21/11:00am 26.6 28.5 19.7 66 4.5 ENE 9 17 5 9 1017.1 1016.9 0.0
21/10:30am 25.9 27.5 19.1 66 4.4 NE 9 15 5 8 1017.6 1017.4 0.0
21/10:00am 24.2 26.0 19.5 75 3.0 NE 9 15 5 8 1018.0 1017.8 0.0
21/09:30am 20.6 23.0 18.7 89 1.2 NE 4 9 2 5 1018.5 1018.3 0.0
21/09:00am 18.6 21.3 18.6 100 0.0 NNE 2 7 1 4 1018.9 1018.7 0.0
21/08:30am 18.1 20.6 18.1 100 0.0 NNE 2 7 1 4 1019.1 1018.9 0.0
21/08:00am 17.6 19.5 17.6 100 0.0 NE 4 9 2 5 1019.2 1019.0 0.0
21/07:30am 17.0 19.4 17.0 100 0.0 CALM 0 0 0 0 1019.1 1018.9 0.0
21/07:00am 16.5 17.4 16.5 100 0.0 SW 7 7 4 4 1018.9 1018.7 0.0
21/06:30am 15.8 16.4 15.8 100 0.0 S 7 7 4 4 1018.9 1018.7 0.0
21/06:00am 15.9 16.5 15.7 99 0.1 S 7 9 4 5 1018.7 1018.5 0.0
21/05:30am 16.8 18.7 16.6 99 0.1 N 2 7 1 4 1018.7 1018.5 0.0
21/05:00am 17.2 19.6 17.0 99 0.1 CALM 0 0 0 0 1018.8 1018.6 0.0
21/04:30am 17.2 19.6 17.0 99 0.1 CALM 0 0 0 0 1018.8 1018.6 0.0
21/04:00am 17.2 19.4 16.6 96 0.4 CALM 0 0 0 0 1018.7 1018.5 0.0
21/03:30am 18.1 20.7 17.5 96 0.4 CALM 0 0 0 0 1018.8 1018.6 0.0
21/03:00am 18.5 21.1 17.5 94 0.6 CALM 0 0 0 0 1019.3 1019.1 0.0
21/02:30am 19.0 21.2 17.5 91 0.9 NNE 2 7 1 4 1019.9 1019.7 0.0
21/02:00am 19.4 20.2 17.4 88 1.2 NNW 9 11 5 6 1020.0 1019.8 0.0
21/01:30am 19.8 21.2 17.8 88 1.2 N 7 11 4 6 1019.9 1019.7 0.0
21/01:00am 20.0 22.9 18.1 89 1.2 CALM 0 0 0 0 1019.7 1019.5 0.0
21/12:30am 20.4 23.4 18.5 89 1.2 CALM 0 0 0 0 1019.9 1019.7 0.0
21/12:00am 20.4 23.3 18.2 87 1.4 CALM 0 0 0 0 1019.9 1019.7 0.0
 
Date/Time
EDT
Temp
°C
App
Temp
°C
Dew
Point
°C
Rel
Hum
%
Delta-T
°C
Wind Press
QNH
hPa
Press
MSL
hPa
Rain since
9am
mm
Dir  Spd
km/h
Gust
km/h
Spd
kts
Gust
kts
20/11:30pm 20.5 23.4 18.1 86 1.5 CALM 0 0 0 0 1020.2 1020.0 0.0
20/11:00pm 20.5 23.3 17.9 85 1.6 CALM 0 0 0 0 1020.5 1020.3 0.0
20/10:30pm 20.9 23.4 18.1 84 1.7 ENE 2 9 1 5 1020.8 1020.6 0.0
20/10:00pm 20.8 22.5 18.0 84 1.7 SSE 6 9 3 5 1020.7 1020.5 0.0
20/09:30pm 20.7 22.1 17.7 83 1.9 ENE 7 9 4 5 1020.4 1020.2 0.0
20/09:00pm 21.0 21.9 17.6 81 2.1 ENE 9 13 5 7 1020.0 1019.8 0.0
20/08:30pm 21.2 22.0 17.4 79 2.3 ENE 9 13 5 7 1019.8 1019.6 0.0
20/08:00pm 22.0 21.8 17.6 76 2.7 E 15 20 8 11 1019.5 1019.3 0.0
20/07:30pm 22.8 22.9 17.5 72 3.3 ENE 13 19 7 10 1019.0 1018.8 0.0
20/07:00pm 23.7 23.4 17.4 68 3.9 E 15 20 8 11 1018.7 1018.5 0.0
20/06:30pm 23.9 23.1 18.1 70 3.6 SE 19 26 10 14 1018.6 1018.4 0.0
20/06:00pm 24.7 24.0 18.2 67 4.1 SE 19 26 10 14 1018.5 1018.3 0.0
20/05:30pm 25.2 24.1 17.4 62 4.9 ESE 19 24 10 13 1018.3 1018.1 0.0
20/05:00pm 25.2 23.5 17.1 60 5.0 SE 22 30 12 16 1018.4 1018.2 0.0
20/04:30pm 26.4 25.8 17.5 58 5.6 ESE 17 26 9 14 1018.2 1018.0 0.0
20/04:00pm 26.4 25.3 16.3 53 6.2 ENE 17 24 9 13 1018.2 1018.0 0.0
20/03:30pm 26.4 25.8 17.5 58 5.6 ENE 17 22 9 12 1018.3 1018.1 0.0
20/03:00pm 26.2 25.0 17.0 57 5.7 ESE 19 24 10 13 1018.6 1018.4 0.0
20/02:30pm 25.9 24.8 17.8 61 5.1 ESE 20 26 11 14 1018.7 1018.5 0.0
20/02:00pm 25.8 24.7 17.7 61 5.1 SE 20 32 11 17 1019.0 1018.8 0.0
20/01:30pm 26.1 25.0 17.7 60 5.3 SE 20 28 11 15 1019.1 1018.9 0.0
20/01:00pm 26.1 25.2 17.7 60 5.3 ESE 19 26 10 14 1019.3 1019.1 0.0
20/12:30pm 25.8 26.5 18.0 62 4.9 SSE 11 15 6 8 1019.4 1019.2 0.0
20/12:00pm 26.1 27.7 19.2 65 4.4 E 9 17 5 9 1019.7 1019.5 0.0
20/11:30am 24.5 25.2 17.0 63 4.6 SSE 9 15 5 8 1020.0 1019.8 0.0
20/11:00am 24.7 25.9 17.4 64 4.5 ESE 7 13 4 7 1020.2 1020.0 0.0
20/10:30am 24.7 26.1 17.7 65 4.4 NE 7 15 4 8 1020.3 1020.1 0.0
20/10:00am 23.3 24.2 16.6 66 4.1 SE 7 13 4 7 1020.5 1020.3 0.0
20/09:30am 23.3 24.5 17.3 69 3.7 ENE 7 11 4 6 1020.5 1020.3 0.0
20/09:00am 21.8 22.8 16.3 71 3.3 E 6 11 3 6 1020.7 1020.5 0.2
20/08:30am 20.8 22.1 17.2 80 2.2 SE 6 9 3 5 1020.8 1020.6 0.2
20/08:00am 19.2 20.5 17.2 88 1.2 SSE 6 7 3 4 1020.7 1020.5 0.2
20/07:30am 18.0 20.2 16.5 91 0.9 CALM 0 0 0 0 1020.6 1020.4 0.2
20/07:00am 17.5 20.0 17.2 98 0.2 CALM 0 0 0 0 1020.5 1020.3 0.2
20/06:30am 16.8 19.0 16.6 99 0.1 CALM 0 0 0 0 1020.5 1020.3 0.2
20/06:00am 16.6 18.7 16.3 98 0.2 CALM 0 0 0 0 1020.4 1020.2 0.2
20/05:30am 17.0 19.2 16.4 96 0.4 CALM 0 0 0 0 1020.5 1020.3 0.2
20/05:00am 17.3 19.4 16.3 94 0.6 CALM 0 0 0 0 1020.4 1020.2 0.2
20/04:30am 17.5 18.9 16.4 93 0.7 NW 4 7 2 4 1020.6 1020.4 0.2
20/04:00am 17.8 19.8 16.1 90 1.0 CALM 0 0 0 0 1020.7 1020.5 0.2
20/03:30am 18.4 20.6 16.6 89 1.1 CALM 0 0 0 0 1020.9 1020.7 0.2
20/03:00am 18.6 21.0 17.1 91 0.9 CALM 0 0 0 0 1021.1 1020.9 0.2
20/02:30am 19.2 21.8 17.5 90 1.0 CALM 0 0 0 0 1021.2 1021.0 0.2
20/02:00am 19.0 21.2 16.6 86 1.4 CALM 0 0 0 0 1021.1 1020.9 0.2
20/01:30am 19.3 21.7 16.9 86 1.5 CALM 0 0 0 0 1021.4 1021.2 0.2
20/01:00am 19.2 21.1 16.8 86 1.4 N 2 6 1 3 1021.6 1021.4 0.2
20/12:30am 19.1 20.5 16.3 84 1.7 N 4 6 2 3 1021.8 1021.6 0.2
20/12:00am 19.2 19.9 16.2 83 1.8 N 7 11 4 6 1021.8 1021.6 0.2
 
Date/Time
EDT
Temp
°C
App
Temp
°C
Dew
Point
°C
Rel
Hum
%
Delta-T
°C
Wind Press
QNH
hPa
Press
MSL
hPa
Rain since
9am
mm
Dir  Spd
km/h
Gust
km/h
Spd
kts
Gust
kts
19/11:30pm 19.3 20.0 16.0 81 2.0 N 7 11 4 6 1021.9 1021.7 0.2
19/11:00pm 19.5 19.7 15.8 79 2.2 N 9 13 5 7 1021.7 1021.5 0.2
19/10:30pm 19.5 20.1 15.8 79 2.2 NNE 7 11 4 6 1021.7 1021.5 0.2
19/10:00pm 19.5 20.2 16.0 80 2.1 NNE 7 9 4 5 1021.5 1021.3 0.2
19/09:30pm 19.6 19.7 15.5 77 2.4 NE 9 11 5 6 1021.3 1021.1 0.2
19/09:00pm 19.7 19.5 15.6 77 2.4 NE 11 13 6 7 1021.0 1020.8 0.2
19/08:30pm 19.8 19.6 15.7 77 2.4 NE 11 13 6 7 1020.8 1020.6 0.2
19/08:00pm 20.0 20.1 15.6 76 2.6 ENE 9 13 5 7 1020.6 1020.4 0.2
19/07:30pm 20.3 19.6 15.5 74 2.9 ENE 13 15 7 8 1020.2 1020.0 0.2
19/07:00pm 20.5 20.7 15.7 74 2.9 NE 9 13 5 7 1020.0 1019.8 0.2
19/06:30pm 20.5 20.2 15.5 73 3.0 ENE 11 13 6 7 1019.8 1019.6 0.2
19/06:00pm 20.5 19.8 15.5 73 3.0 ESE 13 19 7 10 1019.6 1019.4 0.2
19/05:30pm 20.8 20.5 15.4 71 3.2 E 11 17 6 9 1019.4 1019.2 0.2
19/05:00pm 20.9 19.8 15.4 71 3.3 ESE 15 19 8 10 1019.3 1019.1 0.2
19/04:30pm 21.4 20.9 15.9 71 3.3 ENE 13 17 7 9 1019.2 1019.0 0.2
19/04:00pm 21.6 20.7 15.9 70 3.4 ENE 15 19 8 10 1019.1 1018.9 0.2
19/03:30pm 21.6 21.0 16.6 73 3.0 ENE 15 20 8 11 1018.9 1018.7 0.2
19/03:00pm 21.9 21.4 16.8 73 3.1 NE 15 19 8 10 1018.8 1018.6 0.2
19/02:30pm 22.2 21.2 16.5 70 3.5 NE 17 22 9 12 1018.5 1018.3 0.2
19/02:00pm 22.8 21.8 16.6 68 3.8 ENE 17 24 9 13 1018.4 1018.2 0.2
19/01:30pm 23.9 23.3 17.6 68 3.9 ENE 17 22 9 12 1018.4 1018.2 0.2
19/01:00pm 23.2 21.8 16.5 66 4.1 NE 19 24 10 13 1018.2 1018.0 0.2
19/12:30pm 23.4 23.5 17.4 69 3.7 NE 13 19 7 10 1018.1 1017.9 0.0
19/12:00pm 22.9 23.5 16.7 68 3.8 E 9 13 5 7 1018.1 1017.9 0.0
19/11:30am 22.3 22.9 16.8 71 3.4 ENE 9 13 5 7 1018.1 1017.9 0.0
19/11:00am 21.8 22.5 17.0 74 2.9 NE 9 11 5 6 1017.9 1017.7 0.0
19/10:30am 21.7 23.0 16.2 71 3.3 SE 4 7 2 4 1018.0 1017.8 0.0
19/10:00am 21.1 22.4 16.1 73 3.0 SE 4 7 2 4 1017.9 1017.7 0.0

Other Formats:

Comma delimited format used in spreadsheet applications
http://www.bom.gov.au/fwo/IDN60801/IDN60801.95931.axf

JavaScript Object Notation format (JSON) in row-major order
http://www.bom.gov.au/fwo/IDN60801/IDN60801.95931.json